Time;durP1;ratioP1;P1;durP2;ratioP2;P2;SDS_P1;SDS_P2;PMS_P1;PMS_P2;Temp;Humidity;BMP_temperature;BMP_pressure;BME280_temperature;BME280_humidity;BME280_pressure;Samples;Min_cycle;Max_cycle;Signal;HPM_P1;HPM_P2
2021/12/07 00:00:50;;;;;;;7.57;5.13;;;3.00;99.90;;;;;;5063329;28;20029;-74
2021/12/07 00:03:16;;;;;;;5.45;4.90;;;3.00;99.90;;;;;;5048708;28;20026;-75
2021/12/07 00:05:42;;;;;;;7.65;6.13;;;3.10;99.90;;;;;;5052609;28;20029;-74
2021/12/07 00:08:08;;;;;;;6.70;4.43;;;3.00;99.90;;;;;;5057148;28;20029;-73
2021/12/07 00:10:35;;;;;;;8.15;5.55;;;3.10;99.90;;;;;;5060103;28;20041;-74
2021/12/07 00:13:00;;;;;;;6.50;3.78;;;3.10;99.90;;;;;;5076418;28;20025;-74
2021/12/07 00:15:29;;;;;;;3.95;3.50;;;3.10;99.90;;;;;;5075930;28;20053;-73
2021/12/07 00:17:55;;;;;;;3.40;3.00;;;3.20;99.90;;;;;;5073092;28;20017;-75
2021/12/07 00:20:22;;;;;;;4.03;3.38;;;3.30;99.90;;;;;;5070056;28;20037;-73
2021/12/07 00:22:51;;;;;;;4.38;3.72;;;3.40;99.90;;;;;;5063699;28;20029;-74
2021/12/07 00:25:16;;;;;;;4.20;3.40;;;3.40;99.90;;;;;;5060630;28;20067;-74
2021/12/07 00:27:42;;;;;;;4.53;3.50;;;3.30;99.90;;;;;;5059975;28;20032;-74
2021/12/07 00:30:10;;;;;;;4.35;3.30;;;3.40;99.90;;;;;;5056045;28;20028;-73
2021/12/07 00:32:41;;;;;;;4.35;3.53;;;3.30;99.90;;;;;;5046636;28;20104;-73
2021/12/07 00:37:53;;;;;;;7.45;3.83;;;3.40;99.90;;;;;;5053155;28;19959;-74
2021/12/07 00:40:22;;;;;;;6.43;3.88;;;3.30;99.90;;;;;;5050377;28;20111;-75
2021/12/07 00:42:48;;;;;;;3.90;3.50;;;3.30;99.90;;;;;;5054361;28;20423;-74
2021/12/07 00:45:18;;;;;;;5.68;4.20;;;3.40;99.90;;;;;;5055489;28;20055;-74
2021/12/07 00:47:44;;;;;;;5.75;3.38;;;3.40;99.90;;;;;;5052953;28;20483;-73
2021/12/07 00:50:10;;;;;;;5.65;4.00;;;3.40;99.90;;;;;;5061207;28;20104;-73
2021/12/07 00:52:36;;;;;;;4.63;3.70;;;3.40;99.90;;;;;;5074553;28;20009;-72
2021/12/07 00:55:08;;;;;;;3.90;3.42;;;3.40;99.90;;;;;;5073074;28;20079;-73
2021/12/07 00:57:34;;;;;;;4.20;3.70;;;3.30;99.90;;;;;;5071133;28;20048;-71
2021/12/07 01:00:00;;;;;;;5.05;3.95;;;3.20;99.90;;;;;;5052803;28;20028;-73
2021/12/07 01:02:26;;;;;;;4.30;3.65;;;3.20;99.90;;;;;;5050889;28;20018;-73
2021/12/07 01:04:57;;;;;;;4.00;3.50;;;3.10;99.90;;;;;;5034798;28;20022;-73
2021/12/07 01:07:52;;;;;;;4.93;3.92;;;3.00;99.90;;;;;;5051204;28;20028;-73
2021/12/07 01:26:38;;;;;;;5.55;4.20;;;2.90;99.90;;;;;;5058818;28;20028;-74
2021/12/07 01:29:04;;;;;;;4.97;4.03;;;2.90;99.90;;;;;;5057642;28;20372;-75
2021/12/07 01:31:41;;;;;;;5.18;3.88;;;2.90;99.90;;;;;;5052147;28;20052;-75
2021/12/07 01:45:17;;;;;;;3.88;3.53;;;3.00;99.90;;;;;;5051666;28;20083;-74
2021/12/07 01:52:57;;;;;;;3.80;3.45;;;3.00;99.90;;;;;;5048813;28;20017;-74
2021/12/07 02:00:55;;;;;;;3.75;3.33;;;3.20;99.90;;;;;;5050271;28;20417;-75
2021/12/07 02:03:22;;;;;;;2.60;2.40;;;3.10;99.90;;;;;;5049979;28;20373;-75
2021/12/07 02:05:47;;;;;;;3.22;2.90;;;3.20;99.90;;;;;;5056206;28;20476;-74
2021/12/07 02:08:14;;;;;;;2.55;2.35;;;3.10;99.90;;;;;;5055304;28;20035;-75
2021/12/07 02:10:40;;;;;;;2.60;2.38;;;3.20;99.90;;;;;;5055167;28;20025;-74
2021/12/07 02:13:20;;;;;;;3.42;2.60;;;3.10;99.90;;;;;;5054461;28;20063;-74
2021/12/07 02:15:46;;;;;;;2.95;2.65;;;3.00;99.90;;;;;;5056148;28;20025;-74
2021/12/07 02:18:11;;;;;;;3.17;2.88;;;3.10;99.90;;;;;;5056063;28;20036;-73
2021/12/07 02:20:37;;;;;;;4.50;2.85;;;3.10;99.90;;;;;;5049574;28;20029;-74
2021/12/07 02:23:03;;;;;;;3.63;3.10;;;3.10;99.90;;;;;;5049769;28;20493;-74
2021/12/07 02:25:28;;;;;;;4.32;3.22;;;3.20;99.90;;;;;;5034687;28;20018;-74
2021/12/07 02:27:55;;;;;;;3.45;3.00;;;3.10;99.90;;;;;;5039656;28;20024;-74
2021/12/07 02:30:23;;;;;;;4.40;3.00;;;3.10;99.90;;;;;;5049489;28;20025;-75
2021/12/07 02:32:52;;;;;;;2.85;2.55;;;3.20;99.90;;;;;;5070905;28;20654;-73
2021/12/07 02:35:25;;;;;;;2.63;2.20;;;3.20;99.90;;;;;;5068102;28;20032;-73
2021/12/07 02:37:52;;;;;;;2.75;2.55;;;3.20;99.90;;;;;;5055013;28;20532;-74
2021/12/07 02:40:18;;;;;;;2.40;2.08;;;3.20;99.90;;;;;;5045432;28;20091;-73
2021/12/07 02:42:44;;;;;;;3.20;2.92;;;3.30;99.90;;;;;;5048964;28;20025;-73
2021/12/07 02:45:11;;;;;;;2.67;2.42;;;3.40;99.90;;;;;;5052639;28;20017;-74
2021/12/07 02:47:37;;;;;;;2.83;2.60;;;3.40;99.90;;;;;;5052079;28;20025;-74
2021/12/07 02:50:08;;;;;;;2.38;2.17;;;3.40;99.90;;;;;;5052430;28;20127;-76
2021/12/07 02:52:34;;;;;;;2.78;2.40;;;3.40;99.90;;;;;;5050722;28;20049;-73
2021/12/07 02:54:59;;;;;;;2.33;2.10;;;3.40;99.90;;;;;;5052075;28;20056;-74
2021/12/07 02:57:25;;;;;;;2.70;2.45;;;3.30;99.90;;;;;;5048208;28;20124;-74
2021/12/07 03:00:00;;;;;;;2.70;2.50;;;3.30;99.90;;;;;;5054452;28;20025;-74
2021/12/07 03:02:27;;;;;;;2.50;1.70;;;3.40;99.90;;;;;;5047695;28;20029;-74
2021/12/07 03:05:09;;;;;;;1.75;1.63;;;3.40;99.90;;;;;;5048997;28;20047;-75
2021/12/07 03:07:49;;;;;;;1.90;1.70;;;3.40;99.90;;;;;;5049188;28;20444;-75
2021/12/07 03:26:34;;;;;;;2.58;1.60;;;3.40;99.90;;;;;;5054153;28;20032;-73
2021/12/07 03:29:00;;;;;;;1.60;1.50;;;3.50;99.90;;;;;;5052951;28;20409;-74
2021/12/07 03:31:26;;;;;;;1.55;1.45;;;3.40;99.90;;;;;;5050831;28;20563;-74
2021/12/07 03:33:55;;;;;;;1.98;1.75;;;3.30;99.90;;;;;;5042107;28;20043;-74
2021/12/07 03:36:21;;;;;;;2.33;2.00;;;3.30;99.90;;;;;;5048106;28;20040;-74
2021/12/07 03:38:48;;;;;;;3.05;2.38;;;3.40;99.90;;;;;;5044036;28;20063;-74
2021/12/07 03:41:15;;;;;;;1.85;1.65;;;3.50;99.90;;;;;;5046501;28;20410;-74
2021/12/07 03:43:41;;;;;;;2.92;1.50;;;3.40;99.90;;;;;;5051972;28;20033;-74
2021/12/07 03:46:07;;;;;;;2.83;1.85;;;3.30;99.90;;;;;;5050289;28;20036;-74
2021/12/07 03:48:34;;;;;;;3.70;1.83;;;3.30;99.90;;;;;;5052875;28;20017;-74
2021/12/07 03:50:59;;;;;;;3.08;1.92;;;3.30;99.90;;;;;;5046117;28;20477;-74
2021/12/07 03:53:27;;;;;;;1.95;1.60;;;3.20;99.90;;;;;;5045738;28;20032;-75
2021/12/07 03:55:54;;;;;;;2.60;1.70;;;3.30;99.90;;;;;;5051463;28;20024;-74
2021/12/07 03:58:20;;;;;;;1.80;1.67;;;3.20;99.90;;;;;;5053032;28;20040;-74
2021/12/07 04:00:46;;;;;;;2.33;1.67;;;3.20;99.90;;;;;;5052096;28;20480;-74
2021/12/07 04:03:15;;;;;;;1.90;1.63;;;3.20;99.90;;;;;;5046096;28;20028;-73
2021/12/07 04:05:49;;;;;;;1.55;1.33;;;3.20;99.90;;;;;;5041498;28;20389;-74
2021/12/07 04:08:18;;;;;;;3.67;1.50;;;3.30;99.90;;;;;;5045417;28;20068;-74
2021/12/07 04:10:44;;;;;;;3.45;1.60;;;3.30;99.90;;;;;;5043392;28;20025;-74
2021/12/07 04:13:10;;;;;;;4.40;1.40;;;3.30;99.90;;;;;;5054763;28;20031;-74
2021/12/07 04:15:36;;;;;;;2.42;1.70;;;3.30;99.90;;;;;;5060171;28;20029;-73
2021/12/07 04:18:03;;;;;;;1.50;1.40;;;3.50;99.90;;;;;;5069194;28;20052;-73
2021/12/07 04:20:29;;;;;;;1.42;1.25;;;3.50;99.90;;;;;;5067507;28;20032;-74
2021/12/07 04:22:55;;;;;;;2.10;1.50;;;3.50;99.90;;;;;;5047859;28;20026;-74
2021/12/07 04:25:23;;;;;;;1.92;1.20;;;3.50;99.90;;;;;;5034827;28;20022;-73
2021/12/07 04:27:50;;;;;;;1.40;1.05;;;3.50;99.90;;;;;;5047816;28;20082;-74
2021/12/07 04:30:19;;;;;;;2.05;1.42;;;3.50;99.90;;;;;;5055709;28;20049;-73
2021/12/07 04:32:45;;;;;;;3.17;1.75;;;3.50;99.90;;;;;;5055952;28;20485;-74
2021/12/07 04:35:12;;;;;;;1.15;1.05;;;3.50;99.90;;;;;;5056271;23;20052;-72
2021/12/07 04:37:38;;;;;;;2.30;1.35;;;3.50;99.90;;;;;;5053647;28;20485;-70
2021/12/07 04:40:07;;;;;;;1.80;1.25;;;3.50;99.90;;;;;;5062256;28;20058;-71
2021/12/07 04:42:32;;;;;;;1.80;1.05;;;3.50;99.90;;;;;;5049026;28;20358;-71
2021/12/07 04:45:02;;;;;;;2.05;1.30;;;3.60;99.90;;;;;;5043759;28;20100;-70
2021/12/07 04:47:44;;;;;;;2.17;1.53;;;3.60;99.90;;;;;;5035454;28;20065;-71
2021/12/07 04:58:13;;;;;;;2.53;0.82;;;3.60;99.90;;;;;;5043197;28;20182;-70
2021/12/07 05:00:38;;;;;;;1.15;1.00;;;3.60;99.90;;;;;;5034892;28;20093;-71
2021/12/07 05:03:09;;;;;;;3.28;1.40;;;3.60;99.90;;;;;;5038531;28;20047;-72
2021/12/07 05:05:41;;;;;;;;;;;3.60;99.90;;;;;;5052501;28;20100;-72
2021/12/07 05:08:10;;;;;;;2.20;1.35;;;3.50;99.90;;;;;;5042693;28;19912;-71
2021/12/07 05:11:12;;;;;;;3.30;1.13;;;3.50;99.90;;;;;;5043551;28;20029;-71
2021/12/07 05:13:31;;;;;;;1.98;1.30;;;3.40;99.90;;;;;;5044478;28;20108;-70
2021/12/07 05:18:38;;;;;;;2.25;1.05;;;3.30;99.90;;;;;;5049174;28;20484;-71
2021/12/07 05:24:01;;;;;;;3.30;1.52;;;3.10;99.90;;;;;;5044663;28;20033;-71
2021/12/07 05:37:40;;;;;;;3.00;1.70;;;3.00;99.90;;;;;;5048035;28;20396;-72
2021/12/07 05:37:50;;;;;;;5.18;1.10;;;2.90;99.90;;;;;;5051332;28;20157;-72
2021/12/07 05:40:32;;;;;;;4.78;1.80;;;2.90;99.90;;;;;;5055704;28;20052;-73
2021/12/07 05:42:59;;;;;;;4.32;1.17;;;2.80;99.90;;;;;;5037844;28;20021;-71
2021/12/07 05:45:33;;;;;;;1.92;1.25;;;2.80;99.90;;;;;;5055419;28;20013;-70
2021/12/07 05:48:00;;;;;;;3.05;1.58;;;2.80;99.90;;;;;;5045558;28;20469;-72
2021/12/07 05:50:29;;;;;;;3.67;1.92;;;2.90;99.90;;;;;;5052963;28;20021;-71
2021/12/07 05:52:55;;;;;;;3.08;1.52;;;2.90;99.90;;;;;;5026956;28;20029;-72
2021/12/07 05:55:21;;;;;;;2.72;1.75;;;2.90;99.90;;;;;;5050970;28;20021;-72
2021/12/07 05:57:47;;;;;;;2.72;1.42;;;3.00;99.90;;;;;;5049334;28;20041;-71
2021/12/07 06:00:23;;;;;;;4.07;1.63;;;3.00;99.90;;;;;;5035308;28;20041;-72
2021/12/07 06:02:50;;;;;;;1.42;1.10;;;3.10;99.90;;;;;;5047633;28;20108;-71
2021/12/07 06:05:15;;;;;;;2.67;1.27;;;3.30;99.90;;;;;;5060686;28;20151;-71
2021/12/07 06:07:41;;;;;;;5.97;1.80;;;3.30;99.90;;;;;;5053116;28;20029;-71
2021/12/07 06:10:07;;;;;;;3.35;1.10;;;3.40;99.90;;;;;;5062992;28;20040;-71
2021/12/07 06:12:33;;;;;;;2.45;1.10;;;3.50;99.90;;;;;;5052220;28;20029;-71
2021/12/07 06:14:58;;;;;;;1.85;1.10;;;3.50;99.90;;;;;;5038042;28;20148;-71
2021/12/07 06:17:24;;;;;;;7.05;2.33;;;3.60;99.90;;;;;;5037422;28;20366;-71
2021/12/07 06:19:51;;;;;;;2.88;1.40;;;3.60;99.90;;;;;;5051506;28;20110;-71
2021/12/07 06:22:17;;;;;;;5.90;2.05;;;3.70;99.90;;;;;;5049810;28;20565;-72
2021/12/07 06:24:42;;;;;;;4.88;1.38;;;3.70;99.90;;;;;;5055825;28;20063;-72
2021/12/07 06:27:08;;;;;;;5.10;1.40;;;3.70;99.90;;;;;;5043562;28;20025;-72
2021/12/07 06:29:33;;;;;;;3.33;1.38;;;3.70;99.90;;;;;;5035191;28;20061;-71
2021/12/07 06:31:59;;;;;;;3.15;1.73;;;3.80;99.90;;;;;;5043406;28;20017;-72
2021/12/07 06:34:25;;;;;;;5.50;1.30;;;3.80;99.90;;;;;;5050585;28;20290;-71
2021/12/07 06:36:50;;;;;;;1.50;0.95;;;3.90;99.90;;;;;;5050423;28;20423;-71
2021/12/07 06:39:18;;;;;;;3.38;1.23;;;3.90;99.90;;;;;;5053176;28;20057;-70
2021/12/07 06:41:44;;;;;;;1.65;1.13;;;3.90;99.90;;;;;;5047709;28;20014;-71
2021/12/07 06:44:10;;;;;;;6.15;1.40;;;4.00;99.90;;;;;;5034763;28;20455;-71
2021/12/07 06:46:35;;;;;;;8.48;1.58;;;4.10;99.90;;;;;;5052079;28;20024;-70
2021/12/07 06:49:01;;;;;;;6.63;1.23;;;4.20;99.90;;;;;;5062658;28;20401;-71
2021/12/07 06:51:28;;;;;;;3.47;0.90;;;4.20;99.90;;;;;;5051571;28;20103;-72
2021/12/07 06:53:54;;;;;;;3.55;1.27;;;4.10;99.90;;;;;;5048370;28;20025;-73
2021/12/07 06:56:19;;;;;;;4.20;1.15;;;4.20;99.90;;;;;;5045395;28;20401;-72
2021/12/07 06:58:45;;;;;;;4.45;1.33;;;4.20;99.90;;;;;;5054314;28;20115;-72
2021/12/07 07:01:11;;;;;;;3.63;1.20;;;4.20;99.90;;;;;;5050817;28;20044;-73
2021/12/07 07:03:37;;;;;;;2.75;1.15;;;4.20;99.90;;;;;;5037393;28;20026;-72
2021/12/07 07:06:03;;;;;;;9.90;2.35;;;4.20;99.90;;;;;;5037027;28;20113;-73
2021/12/07 07:08:29;;;;;;;5.07;1.00;;;4.20;99.90;;;;;;5053869;28;20029;-72
2021/12/07 07:10:55;;;;;;;4.47;1.15;;;4.20;99.90;;;;;;5052687;28;20029;-72
2021/12/07 07:13:21;;;;;;;6.30;1.50;;;4.20;99.90;;;;;;5042970;28;20027;-71
2021/12/07 07:15:46;;;;;;;4.50;1.80;;;4.20;99.90;;;;;;5055805;28;20439;-72
2021/12/07 07:18:12;;;;;;;5.55;2.15;;;4.20;99.90;;;;;;5056340;28;20535;-72
2021/12/07 07:20:38;;;;;;;4.65;1.55;;;4.20;99.90;;;;;;5054841;28;20021;-71
2021/12/07 07:23:04;;;;;;;6.03;2.10;;;4.20;99.90;;;;;;5036310;28;20362;-71
2021/12/07 07:25:30;;;;;;;4.43;2.28;;;4.20;99.90;;;;;;5053718;28;20017;-71
2021/12/07 07:27:56;;;;;;;7.93;2.03;;;4.20;99.90;;;;;;5042572;28;20467;-71
2021/12/07 07:30:22;;;;;;;7.82;1.70;;;4.40;99.90;;;;;;5053451;28;20557;-71
2021/12/07 07:32:48;;;;;;;5.35;1.75;;;4.50;99.90;;;;;;5040213;28;20108;-71
2021/12/07 07:35:15;;;;;;;4.38;1.77;;;4.40;99.90;;;;;;5053369;28;20037;-71
2021/12/07 07:37:41;;;;;;;7.43;1.90;;;4.40;99.90;;;;;;5040865;28;20025;-71
2021/12/07 07:40:10;;;;;;;3.45;1.70;;;4.60;99.90;;;;;;5053077;28;20028;-71
2021/12/07 07:42:36;;;;;;;4.75;1.92;;;4.50;99.90;;;;;;5055774;28;20060;-70
2021/12/07 07:45:04;;;;;;;4.28;1.00;;;4.40;99.90;;;;;;5064050;28;20017;-71
2021/12/07 07:47:29;;;;;;;4.95;1.33;;;4.40;99.90;;;;;;5063268;28;20052;-72
2021/12/07 07:49:55;;;;;;;7.85;1.60;;;4.30;99.90;;;;;;5042264;28;20024;-71
2021/12/07 07:52:21;;;;;;;7.15;2.00;;;4.30;99.90;;;;;;5045475;28;20032;-73
2021/12/07 07:54:46;;;;;;;5.50;1.30;;;4.40;99.90;;;;;;5047685;28;20021;-71
2021/12/07 07:57:12;;;;;;;2.63;1.20;;;4.40;99.90;;;;;;5043996;28;20028;-71
2021/12/07 07:59:39;;;;;;;6.28;1.85;;;4.40;99.90;;;;;;5050468;28;20100;-71
2021/12/07 08:02:05;;;;;;;4.38;1.20;;;4.40;99.90;;;;;;5052119;28;20017;-71
2021/12/07 08:04:31;;;;;;;7.13;1.70;;;4.50;99.90;;;;;;5044339;28;20020;-71
2021/12/07 08:06:57;;;;;;;6.28;1.48;;;4.40;99.90;;;;;;5050654;28;20484;-71
2021/12/07 08:09:22;;;;;;;5.10;1.55;;;4.40;99.90;;;;;;5051486;28;20032;-72
2021/12/07 08:11:48;;;;;;;4.07;1.10;;;4.50;99.90;;;;;;5034230;28;20029;-72
2021/12/07 08:14:15;;;;;;;6.00;1.10;;;4.50;99.90;;;;;;5047907;28;20047;-72
2021/12/07 08:16:41;;;;;;;6.53;2.30;;;4.50;99.90;;;;;;5039284;28;20393;-70
2021/12/07 08:19:06;;;;;;;7.15;2.53;;;4.60;99.90;;;;;;5051666;28;20029;-71
2021/12/07 08:21:32;;;;;;;5.93;2.80;;;4.60;99.90;;;;;;5035051;28;20108;-71
2021/12/07 08:23:58;;;;;;;4.03;1.23;;;4.70;99.90;;;;;;5040097;28;20021;-72
2021/12/07 08:26:24;;;;;;;4.38;1.20;;;4.70;99.90;;;;;;5042559;28;20017;-72
2021/12/07 08:28:55;;;;;;;7.43;1.35;;;4.70;99.90;;;;;;5038540;28;20029;-72
2021/12/07 08:31:21;;;;;;;6.22;2.30;;;4.80;99.90;;;;;;5053220;28;20044;-72
2021/12/07 08:33:48;;;;;;;2.83;1.20;;;4.80;99.90;;;;;;5041924;28;20065;-72
2021/12/07 08:36:14;;;;;;;6.20;1.23;;;4.90;99.90;;;;;;5059404;28;20028;-72
2021/12/07 08:38:40;;;;;;;4.95;1.40;;;4.90;99.90;;;;;;5054588;28;20472;-72
2021/12/07 08:41:06;;;;;;;3.97;2.13;;;4.90;99.90;;;;;;5055593;28;20164;-76
2021/12/07 08:43:33;;;;;;;6.68;1.63;;;4.90;99.90;;;;;;5036829;28;20025;-75
2021/12/07 08:46:05;;;;;;;3.70;1.50;;;5.00;99.90;;;;;;5052546;28;20020;-75
2021/12/07 08:48:34;;;;;;;6.70;1.30;;;5.00;99.90;;;;;;5036434;28;20018;-75
2021/12/07 08:50:59;;;;;;;6.80;2.03;;;5.00;99.90;;;;;;5055383;28;20435;-76
2021/12/07 08:53:26;;;;;;;7.30;1.83;;;5.00;99.90;;;;;;5053881;28;20231;-76
2021/12/07 09:01:25;;;;;;;3.00;1.48;;;5.20;99.90;;;;;;5052689;28;20048;-76
2021/12/07 09:03:54;;;;;;;4.38;1.05;;;5.20;99.90;;;;;;5040025;28;20092;-73
2021/12/07 09:06:20;;;;;;;4.93;1.55;;;5.20;99.90;;;;;;5063334;28;20077;-74
2021/12/07 09:08:45;;;;;;;4.03;1.67;;;5.30;99.90;;;;;;5047573;28;20025;-76
2021/12/07 09:11:12;;;;;;;2.22;0.80;;;5.30;99.90;;;;;;5049324;28;20396;-75
2021/12/07 09:13:40;;;;;;;6.13;1.27;;;5.30;99.90;;;;;;5043457;28;20025;-75
2021/12/07 09:16:07;;;;;;;3.65;1.40;;;5.30;99.90;;;;;;5044644;28;20022;-76
2021/12/07 09:18:33;;;;;;;4.93;1.35;;;5.40;99.90;;;;;;5053858;28;20017;-76
2021/12/07 09:20:59;;;;;;;6.38;1.13;;;5.30;99.90;;;;;;5036953;28;20537;-75
2021/12/07 09:23:25;;;;;;;5.13;1.75;;;5.30;99.90;;;;;;5046033;28;20044;-75
2021/12/07 09:25:52;;;;;;;9.48;2.75;;;5.30;99.90;;;;;;5049005;28;20017;-75
2021/12/07 09:28:18;;;;;;;4.20;1.27;;;5.30;99.90;;;;;;5055716;28;20045;-74
2021/12/07 09:30:50;;;;;;;5.25;1.25;;;5.30;99.90;;;;;;5054342;28;20037;-75
2021/12/07 09:33:21;;;;;;;4.53;1.15;;;5.30;99.90;;;;;;5050063;28;20037;-75
2021/12/07 09:35:47;;;;;;;7.65;2.25;;;5.20;99.90;;;;;;5051866;28;20092;-74
2021/12/07 09:38:12;;;;;;;4.15;1.00;;;5.20;99.90;;;;;;5051893;28;20061;-75
2021/12/07 09:40:38;;;;;;;7.07;1.35;;;5.30;99.90;;;;;;5053720;28;20025;-75
2021/12/07 09:43:04;;;;;;;6.68;1.65;;;5.30;99.90;;;;;;5050672;28;20025;-75
2021/12/07 09:45:31;;;;;;;5.07;1.05;;;5.40;99.90;;;;;;5050619;28;20027;-76
2021/12/07 09:47:59;;;;;;;4.30;1.20;;;5.50;99.90;;;;;;5039739;28;20047;-76
2021/12/07 09:50:25;;;;;;;2.05;1.00;;;5.50;99.90;;;;;;5048718;28;20566;-75
2021/12/07 09:52:51;;;;;;;6.38;1.30;;;5.50;99.90;;;;;;5038947;28;20121;-77
2021/12/07 09:55:17;;;;;;;2.85;0.88;;;5.40;99.90;;;;;;5053043;28;20029;-75
2021/12/07 09:57:44;;;;;;;4.32;1.00;;;5.40;99.90;;;;;;5044656;28;20026;-74
2021/12/07 10:00:13;;;;;;;2.65;0.82;;;5.50;99.90;;;;;;5053668;28;20033;-76
2021/12/07 10:02:39;;;;;;;3.40;0.88;;;5.50;99.90;;;;;;5052749;28;20017;-75
2021/12/07 10:05:05;;;;;;;1.50;0.80;;;5.60;99.90;;;;;;5044988;28;20506;-75
2021/12/07 10:07:31;;;;;;;4.10;1.45;;;5.60;99.90;;;;;;5048884;28;20021;-75
2021/12/07 10:09:57;;;;;;;2.25;1.10;;;5.70;99.90;;;;;;5052496;28;20102;-76
2021/12/07 10:12:24;;;;;;;5.47;1.10;;;5.60;99.90;;;;;;5068931;28;20074;-74
2021/12/07 10:14:49;;;;;;;5.35;1.40;;;5.60;99.90;;;;;;5068668;28;20028;-73
2021/12/07 10:17:23;;;;;;;4.22;1.02;;;5.50;99.90;;;;;;5069971;28;20032;-75
2021/12/07 10:19:49;;;;;;;4.18;0.82;;;5.40;99.90;;;;;;5071952;28;20028;-75
2021/12/07 10:22:21;;;;;;;5.25;1.30;;;5.40;99.90;;;;;;5063165;28;20033;-76
2021/12/07 10:24:50;;;;;;;3.55;1.08;;;5.30;99.90;;;;;;5048695;28;20400;-75
2021/12/07 10:27:40;;;;;;;2.85;1.23;;;5.20;99.90;;;;;;5044674;28;20029;-75
2021/12/07 10:30:17;;;;;;;4.60;1.25;;;5.10;99.90;;;;;;5055079;28;20025;-74
2021/12/07 10:32:57;;;;;;;3.95;1.80;;;5.00;99.90;;;;;;5031176;28;20028;-76
2021/12/07 10:35:27;;;;;;;3.78;1.33;;;5.10;99.90;;;;;;5063961;22;20037;-78
2021/12/07 10:38:18;;;;;;;7.13;1.42;;;5.10;99.90;;;;;;5036003;28;20083;-80
2021/12/07 10:41:03;;;;;;;4.63;1.52;;;5.00;99.90;;;;;;5044728;28;20056;-79
2021/12/07 10:43:47;;;;;;;5.68;1.23;;;5.10;99.90;;;;;;5040865;28;20041;-79
2021/12/07 10:46:30;;;;;;;3.15;1.10;;;5.00;99.90;;;;;;5036467;28;20026;-79
2021/12/07 10:49:16;;;;;;;7.68;1.73;;;5.00;99.90;;;;;;5027573;28;20021;-79
2021/12/07 10:51:59;;;;;;;5.13;1.27;;;5.10;99.90;;;;;;5036227;28;20040;-79
2021/12/07 10:54:27;;;;;;;8.13;0.95;;;5.20;99.90;;;;;;5040856;28;20056;-79
2021/12/07 10:56:53;;;;;;;8.10;1.30;;;5.30;99.90;;;;;;5040881;28;20478;-79
2021/12/07 10:59:19;;;;;;;3.25;1.00;;;5.40;99.90;;;;;;5038918;28;20060;-79
2021/12/07 11:01:48;;;;;;;4.82;1.05;;;5.40;99.90;;;;;;5021739;28;20511;-78
2021/12/07 11:04:33;;;;;;;3.00;1.00;;;5.50;99.90;;;;;;5023490;28;20033;-80
2021/12/07 11:07:19;;;;;;;3.50;1.30;;;5.70;99.90;;;;;;5027302;28;20029;-80
2021/12/07 11:09:57;;;;;;;3.05;1.33;;;5.80;99.90;;;;;;5036641;28;20040;-81
2021/12/07 11:12:25;;;;;;;5.80;1.30;;;5.90;99.90;;;;;;5034456;28;20182;-80
2021/12/07 11:14:59;;;;;;;4.18;1.10;;;6.00;99.90;;;;;;5029239;28;20088;-78
2021/12/07 11:17:31;;;;;;;4.25;1.10;;;6.10;99.90;;;;;;5027041;28;20026;-76
2021/12/07 11:19:58;;;;;;;9.32;1.40;;;6.10;99.90;;;;;;5020410;28;20527;-77
2021/12/07 11:22:31;;;;;;;6.20;1.63;;;6.00;99.90;;;;;;5002656;28;20053;-77
2021/12/07 11:24:57;;;;;;;3.47;0.82;;;6.00;99.90;;;;;;5033840;28;20376;-76
2021/12/07 11:30:12;;;;;;;3.65;0.95;;;6.00;99.90;;;;;;5026817;28;20170;-76
2021/12/07 11:32:51;;;;;;;3.38;1.25;;;6.00;99.90;;;;;;5028329;28;20104;-77
2021/12/07 11:35:33;;;;;;;6.40;2.40;;;6.00;99.90;;;;;;5008333;28;20088;-76
2021/12/07 11:38:03;;;;;;;5.45;1.55;;;6.00;99.90;;;;;;5034378;28;20026;-75
2021/12/07 11:40:36;;;;;;;11.30;1.83;;;6.00;99.90;;;;;;5028826;28;20022;-76
2021/12/07 11:43:14;;;;;;;3.25;1.08;;;5.90;99.90;;;;;;5023365;28;20354;-76
2021/12/07 11:45:43;;;;;;;4.05;1.27;;;5.90;99.90;;;;;;5027389;28;20485;-76
2021/12/07 11:48:09;;;;;;;6.97;1.27;;;5.90;99.90;;;;;;5029586;28;20030;-75
2021/12/07 11:50:50;;;;;;;3.78;1.13;;;6.00;99.90;;;;;;5034853;28;20430;-77
2021/12/07 11:53:21;;;;;;;4.75;1.00;;;6.20;99.90;;;;;;5014433;28;20087;-77
2021/12/07 11:55:49;;;;;;;7.70;2.58;;;6.30;99.90;;;;;;5035343;28;20493;-77
2021/12/07 11:58:16;;;;;;;2.33;1.00;;;6.40;99.90;;;;;;5023991;28;20041;-76
2021/12/07 12:00:48;;;;;;;4.47;1.40;;;6.60;99.90;;;;;;5031292;28;20025;-77
2021/12/07 12:03:16;;;;;;;5.82;1.70;;;6.70;99.90;;;;;;5033215;28;20021;-75
2021/12/07 12:05:45;;;;;;;5.70;1.00;;;6.80;99.90;;;;;;5028787;28;20025;-76
2021/12/07 12:08:13;;;;;;;3.60;0.80;;;6.90;99.90;;;;;;5030642;28;20021;-76
2021/12/07 12:10:43;;;;;;;2.20;0.73;;;7.00;99.90;;;;;;5037028;28;20017;-77
2021/12/07 12:13:22;;;;;;;2.78;1.10;;;7.00;99.90;;;;;;5023489;28;20040;-78
2021/12/07 12:16:14;;;;;;;3.83;0.88;;;7.10;99.90;;;;;;5011120;28;20025;-77
2021/12/07 12:18:45;;;;;;;3.75;1.05;;;7.30;99.90;;;;;;5022621;28;20508;-76
2021/12/07 12:21:27;;;;;;;3.13;1.20;;;7.10;99.90;;;;;;5026835;28;20026;-76
2021/12/07 12:24:08;;;;;;;3.58;1.20;;;7.10;99.90;;;;;;5018545;28;20445;-76
2021/12/07 12:26:36;;;;;;;5.53;1.17;;;7.00;99.90;;;;;;5028264;28;20473;-77
2021/12/07 12:29:22;;;;;;;3.58;1.25;;;6.90;99.90;;;;;;5023393;28;20104;-77
2021/12/07 12:31:52;;;;;;;5.60;1.40;;;7.00;99.90;;;;;;5032282;28;20022;-75
2021/12/07 12:34:32;;;;;;;4.45;1.58;;;7.10;99.90;;;;;;5033880;28;20489;-77
2021/12/07 12:37:07;;;;;;;7.47;1.15;;;7.20;99.90;;;;;;5018001;28;20041;-77
2021/12/07 12:39:58;;;;;;;3.72;1.20;;;7.50;99.90;;;;;;5023780;28;20049;-76
2021/12/07 12:42:45;;;;;;;6.53;1.13;;;7.50;99.90;;;;;;5021162;28;20025;-77
2021/12/07 12:45:23;;;;;;;3.58;1.00;;;7.60;99.90;;;;;;5018328;28;20049;-77
2021/12/07 12:48:08;;;;;;;4.20;1.00;;;7.60;99.90;;;;;;5030700;28;20021;-76
2021/12/07 12:50:42;;;;;;;4.00;1.30;;;7.40;99.90;;;;;;5028454;28;20033;-75
2021/12/07 12:53:12;;;;;;;6.32;1.48;;;7.20;99.90;;;;;;5025884;28;20113;-75
2021/12/07 12:55:51;;;;;;;4.78;1.45;;;7.40;99.90;;;;;;5021520;28;20021;-76
2021/12/07 12:58:18;;;;;;;6.40;1.17;;;7.30;99.90;;;;;;4999623;28;20029;-76
2021/12/07 13:01:11;;;;;;;3.88;1.30;;;7.20;99.90;;;;;;5014419;28;20025;-77
2021/12/07 13:03:42;;;;;;;5.55;1.20;;;7.20;99.90;;;;;;5023322;28;20021;-75
2021/12/07 13:06:08;;;;;;;;;;;7.50;99.90;;;;;;5026181;28;20108;-76
2021/12/07 13:09:10;;;;;;;5.60;1.33;;;7.40;99.90;;;;;;5049763;28;19977;-75
2021/12/07 13:11:38;;;;;;;4.10;1.00;;;7.40;99.90;;;;;;5044568;28;20135;-75
2021/12/07 13:14:06;;;;;;;4.13;1.10;;;7.30;99.90;;;;;;5036717;28;20085;-76
2021/12/07 13:16:34;;;;;;;4.88;1.00;;;7.40;99.90;;;;;;5027182;28;20029;-76
2021/12/07 13:19:03;;;;;;;3.30;1.15;;;7.50;99.90;;;;;;5025865;28;20037;-75
2021/12/07 13:21:31;;;;;;;2.58;0.80;;;7.40;99.90;;;;;;5033310;28;20477;-77
2021/12/07 13:24:09;;;;;;;4.00;0.98;;;7.30;99.90;;;;;;5039559;28;20025;-76
2021/12/07 13:26:42;;;;;;;4.00;1.17;;;7.20;99.90;;;;;;5034206;28;20030;-76
2021/12/07 13:29:17;;;;;;;2.85;1.92;;;7.20;99.90;;;;;;5023601;28;20033;-77
2021/12/07 13:31:51;;;;;;;5.35;1.77;;;7.10;99.90;;;;;;5014540;28;20037;-76
2021/12/07 13:34:23;;;;;;;4.55;1.45;;;7.00;99.90;;;;;;5035111;28;20030;-76
2021/12/07 13:37:00;;;;;;;4.53;1.20;;;7.10;99.90;;;;;;5032719;28;20036;-75
2021/12/07 13:39:26;;;;;;;6.95;1.88;;;7.20;99.90;;;;;;5008872;28;20029;-76
2021/12/07 13:42:05;;;;;;;3.95;1.08;;;7.30;99.90;;;;;;5024095;28;20028;-76
2021/12/07 13:44:43;;;;;;;2.78;0.93;;;7.20;99.90;;;;;;5025730;28;20018;-76
2021/12/07 13:47:20;;;;;;;5.97;1.08;;;7.10;99.90;;;;;;5022453;28;20466;-75
2021/12/07 13:49:49;;;;;;;4.88;1.10;;;6.90;99.90;;;;;;5032988;28;20030;-75
2021/12/07 13:52:19;;;;;;;4.55;1.33;;;6.80;99.90;;;;;;5019120;28;20030;-76
2021/12/07 13:54:51;;;;;;;3.45;0.90;;;6.70;99.90;;;;;;5032595;28;20049;-75
2021/12/07 13:57:23;;;;;;;5.22;1.58;;;6.70;99.90;;;;;;5038223;28;20017;-76
2021/12/07 14:00:18;;;;;;;3.95;0.93;;;6.60;99.90;;;;;;5020574;28;20109;-76
2021/12/07 14:02:49;;;;;;;5.53;1.73;;;6.60;99.90;;;;;;5024854;28;20025;-76
2021/12/07 14:05:21;;;;;;;3.13;1.02;;;6.50;99.90;;;;;;5018219;28;20580;-76
2021/12/07 14:07:48;;;;;;;3.50;1.15;;;6.50;99.90;;;;;;5035730;28;20435;-76
2021/12/07 14:10:23;;;;;;;3.78;1.38;;;6.40;99.90;;;;;;5026187;28;20033;-76
2021/12/07 14:12:50;;;;;;;5.75;1.38;;;6.30;99.90;;;;;;5020016;28;20076;-76
2021/12/07 14:15:20;;;;;;;4.93;1.20;;;6.20;99.90;;;;;;5027061;28;20041;-75
2021/12/07 14:17:51;;;;;;;4.15;2.15;;;6.10;99.90;;;;;;5004292;28;20018;-75
2021/12/07 14:20:40;;;;;;;3.95;1.83;;;6.20;99.90;;;;;;5023821;28;20029;-76
2021/12/07 14:23:34;;;;;;;4.57;1.15;;;6.10;99.90;;;;;;5024864;28;20029;-76
2021/12/07 14:26:11;;;;;;;2.42;1.58;;;5.90;99.90;;;;;;5028172;28;20052;-77
2021/12/07 14:28:46;;;;;;;1.85;1.08;;;5.90;99.90;;;;;;5030563;28;20021;-75
2021/12/07 14:31:13;;;;;;;2.20;1.02;;;5.80;99.90;;;;;;5020096;28;20033;-76
2021/12/07 14:33:44;;;;;;;3.25;1.95;;;5.80;99.90;;;;;;5013413;28;20033;-76
2021/12/07 14:36:11;;;;;;;6.07;1.10;;;5.70;99.90;;;;;;5019385;28;20041;-75
2021/12/07 14:38:37;;;;;;;2.45;1.35;;;5.60;99.90;;;;;;5018829;28;20422;-74